sensor_id;sensor_type;location;lat;lon;timestamp;P1;durP1;ratioP1;P2;durP2;ratioP2
56752;SDS011;42627;42.646;23.642;2023-10-31T00:17:03;7.57;;;3.30;;
56752;SDS011;42627;42.646;23.642;2023-10-31T00:19:04;7.85;;;3.53;;
56752;SDS011;42627;42.646;23.642;2023-10-31T00:21:05;10.98;;;4.30;;
56752;SDS011;42627;42.646;23.642;2023-10-31T00:23:07;14.38;;;5.82;;
56752;SDS011;42627;42.646;23.642;2023-10-31T00:25:08;11.88;;;3.85;;
56752;SDS011;42627;42.646;23.642;2023-10-31T00:27:09;7.95;;;3.78;;
56752;SDS011;42627;42.646;23.642;2023-10-31T00:29:10;7.82;;;3.95;;
56752;SDS011;42627;42.646;23.642;2023-10-31T00:31:11;15.02;;;4.00;;
56752;SDS011;42627;42.646;23.642;2023-10-31T00:33:14;7.80;;;3.63;;
56752;SDS011;42627;42.646;23.642;2023-10-31T00:35:15;11.07;;;4.28;;
56752;SDS011;42627;42.646;23.642;2023-10-31T00:37:16;7.88;;;3.97;;
56752;SDS011;42627;42.646;23.642;2023-10-31T00:39:17;7.70;;;3.63;;
56752;SDS011;42627;42.646;23.642;2023-10-31T00:41:18;8.88;;;3.53;;
56752;SDS011;42627;42.646;23.642;2023-10-31T00:43:19;8.23;;;4.45;;
56752;SDS011;42627;42.646;23.642;2023-10-31T00:45:20;10.85;;;4.80;;
56752;SDS011;42627;42.646;23.642;2023-10-31T00:47:21;8.82;;;3.97;;
56752;SDS011;42627;42.646;23.642;2023-10-31T00:49:22;6.57;;;4.00;;
56752;SDS011;42627;42.646;23.642;2023-10-31T00:51:23;11.35;;;4.20;;
56752;SDS011;42627;42.646;23.642;2023-10-31T00:53:24;8.45;;;3.90;;
56752;SDS011;42627;42.646;23.642;2023-10-31T00:55:26;8.52;;;4.28;;
56752;SDS011;42627;42.646;23.642;2023-10-31T00:57:27;10.55;;;4.75;;
56752;SDS011;42627;42.646;23.642;2023-10-31T00:59:28;7.90;;;4.20;;
56752;SDS011;42627;42.646;23.642;2023-10-31T01:01:29;8.10;;;4.07;;
56752;SDS011;42627;42.646;23.642;2023-10-31T01:03:30;10.50;;;4.40;;
56752;SDS011;42627;42.646;23.642;2023-10-31T01:05:31;6.65;;;3.70;;
56752;SDS011;42627;42.646;23.642;2023-10-31T01:07:33;9.20;;;4.43;;
56752;SDS011;42627;42.646;23.642;2023-10-31T01:09:35;10.57;;;4.22;;
56752;SDS011;42627;42.646;23.642;2023-10-31T01:11:36;9.98;;;3.95;;
56752;SDS011;42627;42.646;23.642;2023-10-31T01:13:37;10.85;;;4.35;;
56752;SDS011;42627;42.646;23.642;2023-10-31T01:15:38;5.60;;;3.45;;
56752;SDS011;42627;42.646;23.642;2023-10-31T01:17:39;8.05;;;3.92;;
56752;SDS011;42627;42.646;23.642;2023-10-31T01:19:40;10.68;;;4.25;;
56752;SDS011;42627;42.646;23.642;2023-10-31T01:21:42;11.20;;;4.97;;
56752;SDS011;42627;42.646;23.642;2023-10-31T01:23:43;8.70;;;4.55;;
56752;SDS011;42627;42.646;23.642;2023-10-31T01:25:44;9.45;;;4.38;;
56752;SDS011;42627;42.646;23.642;2023-10-31T01:27:45;10.32;;;5.28;;
56752;SDS011;42627;42.646;23.642;2023-10-31T01:29:46;8.23;;;4.22;;
56752;SDS011;42627;42.646;23.642;2023-10-31T01:31:47;8.77;;;4.07;;
56752;SDS011;42627;42.646;23.642;2023-10-31T01:33:48;7.75;;;4.18;;
56752;SDS011;42627;42.646;23.642;2023-10-31T01:35:49;8.10;;;4.13;;
56752;SDS011;42627;42.646;23.642;2023-10-31T01:37:50;8.25;;;3.90;;
56752;SDS011;42627;42.646;23.642;2023-10-31T01:39:52;7.25;;;3.60;;
56752;SDS011;42627;42.646;23.642;2023-10-31T01:41:53;7.50;;;3.65;;
56752;SDS011;42627;42.646;23.642;2023-10-31T01:43:54;8.40;;;3.75;;
56752;SDS011;42627;42.646;23.642;2023-10-31T01:45:55;8.80;;;3.55;;
56752;SDS011;42627;42.646;23.642;2023-10-31T01:47:57;6.55;;;3.58;;
56752;SDS011;42627;42.646;23.642;2023-10-31T01:49:58;6.40;;;3.33;;
56752;SDS011;42627;42.646;23.642;2023-10-31T01:52:00;5.78;;;3.53;;
56752;SDS011;42627;42.646;23.642;2023-10-31T01:54:01;7.95;;;4.05;;
56752;SDS011;42627;42.646;23.642;2023-10-31T01:56:03;9.05;;;3.72;;
56752;SDS011;42627;42.646;23.642;2023-10-31T01:58:04;9.70;;;3.80;;
56752;SDS011;42627;42.646;23.642;2023-10-31T02:00:05;10.50;;;4.20;;
56752;SDS011;42627;42.646;23.642;2023-10-31T02:02:07;10.57;;;4.45;;
56752;SDS011;42627;42.646;23.642;2023-10-31T02:04:08;8.52;;;3.72;;
56752;SDS011;42627;42.646;23.642;2023-10-31T02:06:12;9.48;;;3.60;;
56752;SDS011;42627;42.646;23.642;2023-10-31T02:08:13;5.93;;;3.17;;
56752;SDS011;42627;42.646;23.642;2023-10-31T02:10:14;8.52;;;4.15;;
56752;SDS011;42627;42.646;23.642;2023-10-31T02:14:45;9.68;;;4.00;;
56752;SDS011;42627;42.646;23.642;2023-10-31T02:16:46;7.85;;;3.97;;
56752;SDS011;42627;42.646;23.642;2023-10-31T02:18:48;8.25;;;3.90;;
56752;SDS011;42627;42.646;23.642;2023-10-31T02:20:49;9.15;;;4.60;;
56752;SDS011;42627;42.646;23.642;2023-10-31T02:22:50;8.30;;;4.40;;
56752;SDS011;42627;42.646;23.642;2023-10-31T02:24:51;6.18;;;3.78;;
56752;SDS011;42627;42.646;23.642;2023-10-31T02:26:56;6.38;;;3.70;;
56752;SDS011;42627;42.646;23.642;2023-10-31T02:28:57;9.45;;;4.35;;
56752;SDS011;42627;42.646;23.642;2023-10-31T02:30:58;8.57;;;3.85;;
56752;SDS011;42627;42.646;23.642;2023-10-31T02:33:02;12.27;;;4.50;;
56752;SDS011;42627;42.646;23.642;2023-10-31T02:35:04;9.25;;;4.10;;
56752;SDS011;42627;42.646;23.642;2023-10-31T02:37:05;9.35;;;3.78;;
56752;SDS011;42627;42.646;23.642;2023-10-31T02:39:15;7.35;;;4.05;;
56752;SDS011;42627;42.646;23.642;2023-10-31T02:41:16;7.32;;;3.95;;
56752;SDS011;42627;42.646;23.642;2023-10-31T02:43:17;10.90;;;4.30;;
56752;SDS011;42627;42.646;23.642;2023-10-31T02:45:18;8.88;;;4.28;;
56752;SDS011;42627;42.646;23.642;2023-10-31T02:47:19;5.95;;;3.45;;
56752;SDS011;42627;42.646;23.642;2023-10-31T02:49:21;8.80;;;4.60;;
56752;SDS011;42627;42.646;23.642;2023-10-31T02:51:22;6.95;;;4.75;;
56752;SDS011;42627;42.646;23.642;2023-10-31T02:53:32;9.73;;;4.15;;
56752;SDS011;42627;42.646;23.642;2023-10-31T02:55:42;7.60;;;3.75;;
56752;SDS011;42627;42.646;23.642;2023-10-31T02:57:46;7.40;;;4.00;;
56752;SDS011;42627;42.646;23.642;2023-10-31T02:59:50;10.27;;;4.30;;
56752;SDS011;42627;42.646;23.642;2023-10-31T03:04:22;10.15;;;5.05;;
56752;SDS011;42627;42.646;23.642;2023-10-31T03:06:23;7.57;;;3.83;;
56752;SDS011;42627;42.646;23.642;2023-10-31T03:08:24;8.20;;;3.85;;
56752;SDS011;42627;42.646;23.642;2023-10-31T03:10:26;8.55;;;4.32;;
56752;SDS011;42627;42.646;23.642;2023-10-31T03:12:27;11.85;;;4.00;;
56752;SDS011;42627;42.646;23.642;2023-10-31T03:14:28;5.88;;;3.63;;
56752;SDS011;42627;42.646;23.642;2023-10-31T03:23:08;8.52;;;4.57;;
56752;SDS011;42627;42.646;23.642;2023-10-31T03:25:09;16.45;;;4.00;;
56752;SDS011;42627;42.646;23.642;2023-10-31T03:27:11;8.65;;;4.85;;
56752;SDS011;42627;42.646;23.642;2023-10-31T03:29:12;11.00;;;4.25;;
56752;SDS011;42627;42.646;23.642;2023-10-31T03:31:14;7.93;;;3.92;;
56752;SDS011;42627;42.646;23.642;2023-10-31T03:51:29;11.48;;;4.45;;
56752;SDS011;42627;42.646;23.642;2023-10-31T03:53:30;12.80;;;4.55;;
56752;SDS011;42627;42.646;23.642;2023-10-31T03:55:32;11.98;;;4.35;;
56752;SDS011;42627;42.646;23.642;2023-10-31T03:57:33;9.60;;;4.70;;
56752;SDS011;42627;42.646;23.642;2023-10-31T03:59:36;11.23;;;4.97;;
56752;SDS011;42627;42.646;23.642;2023-10-31T04:03:48;8.45;;;4.82;;
56752;SDS011;42627;42.646;23.642;2023-10-31T04:05:49;7.72;;;4.03;;
56752;SDS011;42627;42.646;23.642;2023-10-31T04:07:50;12.15;;;4.47;;
56752;SDS011;42627;42.646;23.642;2023-10-31T04:09:51;7.95;;;4.13;;
56752;SDS011;42627;42.646;23.642;2023-10-31T04:11:52;7.43;;;4.60;;
56752;SDS011;42627;42.646;23.642;2023-10-31T04:13:53;6.88;;;4.40;;
56752;SDS011;42627;42.646;23.642;2023-10-31T04:15:54;7.95;;;4.45;;
56752;SDS011;42627;42.646;23.642;2023-10-31T04:18:04;7.72;;;3.70;;
56752;SDS011;42627;42.646;23.642;2023-10-31T04:20:15;13.88;;;4.95;;
56752;SDS011;42627;42.646;23.642;2023-10-31T04:22:25;8.38;;;4.00;;
56752;SDS011;42627;42.646;23.642;2023-10-31T04:24:26;10.68;;;4.45;;
56752;SDS011;42627;42.646;23.642;2023-10-31T04:59:09;7.60;;;3.70;;
56752;SDS011;42627;42.646;23.642;2023-10-31T05:01:11;7.85;;;3.65;;
56752;SDS011;42627;42.646;23.642;2023-10-31T05:03:12;11.82;;;4.25;;
56752;SDS011;42627;42.646;23.642;2023-10-31T05:05:14;8.48;;;3.92;;
56752;SDS011;42627;42.646;23.642;2023-10-31T05:07:15;8.43;;;4.10;;
56752;SDS011;42627;42.646;23.642;2023-10-31T05:11:36;22.95;;;10.57;;
56752;SDS011;42627;42.646;23.642;2023-10-31T05:13:38;29.50;;;11.82;;
56752;SDS011;42627;42.646;23.642;2023-10-31T05:15:39;18.55;;;8.85;;
56752;SDS011;42627;42.646;23.642;2023-10-31T05:17:43;12.38;;;6.35;;
56752;SDS011;42627;42.646;23.642;2023-10-31T05:19:44;13.95;;;7.35;;
56752;SDS011;42627;42.646;23.642;2023-10-31T05:21:45;14.88;;;6.93;;
56752;SDS011;42627;42.646;23.642;2023-10-31T05:23:46;29.83;;;8.73;;
56752;SDS011;42627;42.646;23.642;2023-10-31T05:25:48;17.35;;;7.90;;
56752;SDS011;42627;42.646;23.642;2023-10-31T05:27:49;14.68;;;6.60;;
56752;SDS011;42627;42.646;23.642;2023-10-31T05:29:50;11.27;;;5.68;;
56752;SDS011;42627;42.646;23.642;2023-10-31T05:31:51;10.07;;;5.35;;
56752;SDS011;42627;42.646;23.642;2023-10-31T05:33:52;10.90;;;5.68;;
56752;SDS011;42627;42.646;23.642;2023-10-31T05:38:13;9.88;;;4.95;;
56752;SDS011;42627;42.646;23.642;2023-10-31T05:40:14;8.50;;;4.82;;
56752;SDS011;42627;42.646;23.642;2023-10-31T06:10:36;17.27;;;7.85;;
56752;SDS011;42627;42.646;23.642;2023-10-31T06:12:37;11.52;;;6.68;;
56752;SDS011;42627;42.646;23.642;2023-10-31T06:14:57;15.00;;;7.07;;
56752;SDS011;42627;42.646;23.642;2023-10-31T06:16:58;14.95;;;6.70;;
56752;SDS011;42627;42.646;23.642;2023-10-31T06:19:01;19.42;;;7.93;;
56752;SDS011;42627;42.646;23.642;2023-10-31T06:21:02;16.77;;;5.88;;
56752;SDS011;42627;42.646;23.642;2023-10-31T06:23:03;19.40;;;6.85;;
56752;SDS011;42627;42.646;23.642;2023-10-31T06:25:04;14.25;;;6.15;;
56752;SDS011;42627;42.646;23.642;2023-10-31T06:27:05;16.75;;;6.85;;
56752;SDS011;42627;42.646;23.642;2023-10-31T06:29:07;17.15;;;7.45;;
56752;SDS011;42627;42.646;23.642;2023-10-31T06:31:08;14.15;;;7.07;;
56752;SDS011;42627;42.646;23.642;2023-10-31T06:33:09;17.42;;;6.90;;
56752;SDS011;42627;42.646;23.642;2023-10-31T06:35:10;14.93;;;7.55;;
56752;SDS011;42627;42.646;23.642;2023-10-31T06:37:11;19.50;;;7.15;;
56752;SDS011;42627;42.646;23.642;2023-10-31T06:39:12;16.40;;;7.00;;
56752;SDS011;42627;42.646;23.642;2023-10-31T06:41:13;14.15;;;6.97;;
56752;SDS011;42627;42.646;23.642;2023-10-31T06:45:25;16.00;;;6.55;;
56752;SDS011;42627;42.646;23.642;2023-10-31T06:47:26;15.55;;;6.00;;
56752;SDS011;42627;42.646;23.642;2023-10-31T06:49:27;18.75;;;6.30;;
56752;SDS011;42627;42.646;23.642;2023-10-31T06:51:28;12.98;;;6.35;;
56752;SDS011;42627;42.646;23.642;2023-10-31T06:53:29;10.35;;;5.90;;
56752;SDS011;42627;42.646;23.642;2023-10-31T07:10:49;13.65;;;6.28;;
56752;SDS011;42627;42.646;23.642;2023-10-31T07:12:59;12.38;;;6.82;;
56752;SDS011;42627;42.646;23.642;2023-10-31T07:15:00;14.98;;;6.70;;
56752;SDS011;42627;42.646;23.642;2023-10-31T07:17:03;12.20;;;6.10;;
56752;SDS011;42627;42.646;23.642;2023-10-31T07:19:04;14.68;;;6.30;;
56752;SDS011;42627;42.646;23.642;2023-10-31T07:21:05;10.60;;;6.22;;
56752;SDS011;42627;42.646;23.642;2023-10-31T07:23:07;11.95;;;5.97;;
56752;SDS011;42627;42.646;23.642;2023-10-31T07:25:08;16.52;;;6.97;;
56752;SDS011;42627;42.646;23.642;2023-10-31T07:27:18;15.57;;;7.28;;
56752;SDS011;42627;42.646;23.642;2023-10-31T07:29:19;10.63;;;5.70;;
56752;SDS011;42627;42.646;23.642;2023-10-31T07:31:21;17.33;;;6.07;;
56752;SDS011;42627;42.646;23.642;2023-10-31T07:33:22;9.98;;;5.72;;
56752;SDS011;42627;42.646;23.642;2023-10-31T07:35:24;12.45;;;6.78;;
56752;SDS011;42627;42.646;23.642;2023-10-31T07:37:37;13.35;;;6.68;;
56752;SDS011;42627;42.646;23.642;2023-10-31T07:39:47;12.70;;;6.38;;
56752;SDS011;42627;42.646;23.642;2023-10-31T07:42:06;10.48;;;5.88;;
56752;SDS011;42627;42.646;23.642;2023-10-31T07:44:07;11.88;;;5.63;;
56752;SDS011;42627;42.646;23.642;2023-10-31T07:46:08;11.55;;;5.97;;
56752;SDS011;42627;42.646;23.642;2023-10-31T08:04:21;9.93;;;5.05;;
56752;SDS011;42627;42.646;23.642;2023-10-31T08:06:22;10.23;;;4.90;;
56752;SDS011;42627;42.646;23.642;2023-10-31T08:08:23;10.45;;;4.57;;
56752;SDS011;42627;42.646;23.642;2023-10-31T08:32:12;9.73;;;4.18;;
56752;SDS011;42627;42.646;23.642;2023-10-31T08:49:29;10.63;;;4.88;;
56752;SDS011;42627;42.646;23.642;2023-10-31T08:51:30;7.53;;;4.30;;
56752;SDS011;42627;42.646;23.642;2023-10-31T08:53:31;11.85;;;4.43;;
56752;SDS011;42627;42.646;23.642;2023-10-31T08:55:32;9.90;;;4.45;;
56752;SDS011;42627;42.646;23.642;2023-10-31T08:57:33;10.82;;;5.10;;
56752;SDS011;42627;42.646;23.642;2023-10-31T08:59:34;11.15;;;4.68;;
56752;SDS011;42627;42.646;23.642;2023-10-31T09:01:35;9.15;;;4.05;;
56752;SDS011;42627;42.646;23.642;2023-10-31T09:03:36;11.30;;;5.70;;
56752;SDS011;42627;42.646;23.642;2023-10-31T09:05:37;9.75;;;4.88;;
56752;SDS011;42627;42.646;23.642;2023-10-31T09:07:38;8.55;;;4.05;;
56752;SDS011;42627;42.646;23.642;2023-10-31T09:09:40;9.07;;;4.80;;
56752;SDS011;42627;42.646;23.642;2023-10-31T09:11:41;13.23;;;4.53;;
56752;SDS011;42627;42.646;23.642;2023-10-31T09:13:42;8.20;;;4.43;;
56752;SDS011;42627;42.646;23.642;2023-10-31T09:15:43;11.57;;;4.43;;
56752;SDS011;42627;42.646;23.642;2023-10-31T09:38:00;10.43;;;4.53;;
56752;SDS011;42627;42.646;23.642;2023-10-31T11:20:50;8.45;;;3.40;;
56752;SDS011;42627;42.646;23.642;2023-10-31T11:22:54;7.15;;;3.03;;
56752;SDS011;42627;42.646;23.642;2023-10-31T11:29:31;6.13;;;2.80;;
56752;SDS011;42627;42.646;23.642;2023-10-31T11:31:32;7.05;;;2.85;;
56752;SDS011;42627;42.646;23.642;2023-10-31T11:33:33;6.75;;;3.42;;
56752;SDS011;42627;42.646;23.642;2023-10-31T11:38:01;11.68;;;3.83;;
56752;SDS011;42627;42.646;23.642;2023-10-31T12:04:29;6.68;;;1.98;;
56752;SDS011;42627;42.646;23.642;2023-10-31T12:06:31;5.32;;;2.15;;
56752;SDS011;42627;42.646;23.642;2023-10-31T12:08:33;6.25;;;2.17;;
56752;SDS011;42627;42.646;23.642;2023-10-31T12:10:40;5.47;;;2.00;;
56752;SDS011;42627;42.646;23.642;2023-10-31T12:21:37;3.15;;;1.60;;
56752;SDS011;42627;42.646;23.642;2023-10-31T12:23:51;5.60;;;1.73;;
56752;SDS011;42627;42.646;23.642;2023-10-31T13:28:12;6.07;;;1.35;;
56752;SDS011;42627;42.646;23.642;2023-10-31T13:30:15;5.18;;;1.67;;
56752;SDS011;42627;42.646;23.642;2023-10-31T13:32:17;3.13;;;1.40;;
56752;SDS011;42627;42.646;23.642;2023-10-31T13:34:33;3.67;;;1.75;;
56752;SDS011;42627;42.646;23.642;2023-10-31T13:36:34;6.28;;;2.08;;
56752;SDS011;42627;42.646;23.642;2023-10-31T13:38:37;5.28;;;1.80;;
56752;SDS011;42627;42.646;23.642;2023-10-31T13:40:38;5.55;;;1.40;;
56752;SDS011;42627;42.646;23.642;2023-10-31T13:42:40;2.85;;;1.40;;
56752;SDS011;42627;42.646;23.642;2023-10-31T13:44:41;4.47;;;1.63;;
56752;SDS011;42627;42.646;23.642;2023-10-31T13:46:42;5.80;;;1.50;;
56752;SDS011;42627;42.646;23.642;2023-10-31T13:48:44;3.38;;;1.20;;
56752;SDS011;42627;42.646;23.642;2023-10-31T13:53:06;3.25;;;1.52;;
56752;SDS011;42627;42.646;23.642;2023-10-31T13:55:07;6.65;;;1.67;;
56752;SDS011;42627;42.646;23.642;2023-10-31T13:57:09;4.80;;;1.50;;
56752;SDS011;42627;42.646;23.642;2023-10-31T13:59:10;3.25;;;1.25;;
56752;SDS011;42627;42.646;23.642;2023-10-31T14:01:13;3.90;;;1.67;;
56752;SDS011;42627;42.646;23.642;2023-10-31T14:03:14;3.72;;;1.38;;
56752;SDS011;42627;42.646;23.642;2023-10-31T14:10:41;2.72;;;1.20;;
56752;SDS011;42627;42.646;23.642;2023-10-31T14:13:00;2.03;;;1.30;;
56752;SDS011;42627;42.646;23.642;2023-10-31T14:15:02;7.80;;;1.40;;
56752;SDS011;42627;42.646;23.642;2023-10-31T14:17:05;5.07;;;1.33;;
56752;SDS011;42627;42.646;23.642;2023-10-31T14:19:15;4.75;;;1.42;;
56752;SDS011;42627;42.646;23.642;2023-10-31T14:21:20;6.03;;;1.20;;
56752;SDS011;42627;42.646;23.642;2023-10-31T14:23:21;3.43;;;1.03;;
56752;SDS011;42627;42.646;23.642;2023-10-31T14:25:23;5.53;;;1.20;;
56752;SDS011;42627;42.646;23.642;2023-10-31T14:27:24;5.18;;;1.38;;
56752;SDS011;42627;42.646;23.642;2023-10-31T14:29:25;4.70;;;1.80;;
56752;SDS011;42627;42.646;23.642;2023-10-31T14:31:26;5.13;;;1.75;;
56752;SDS011;42627;42.646;23.642;2023-10-31T14:33:27;5.95;;;1.60;;
56752;SDS011;42627;42.646;23.642;2023-10-31T14:35:32;4.95;;;1.48;;
56752;SDS011;42627;42.646;23.642;2023-10-31T14:37:35;4.75;;;1.55;;
56752;SDS011;42627;42.646;23.642;2023-10-31T14:41:56;6.93;;;2.15;;
56752;SDS011;42627;42.646;23.642;2023-10-31T14:43:57;4.47;;;1.83;;
56752;SDS011;42627;42.646;23.642;2023-10-31T14:45:58;4.53;;;1.70;;
56752;SDS011;42627;42.646;23.642;2023-10-31T14:47:59;4.00;;;1.58;;
56752;SDS011;42627;42.646;23.642;2023-10-31T14:57:24;4.70;;;2.00;;
56752;SDS011;42627;42.646;23.642;2023-10-31T14:59:25;8.18;;;1.80;;
56752;SDS011;42627;42.646;23.642;2023-10-31T15:01:26;4.00;;;2.10;;
56752;SDS011;42627;42.646;23.642;2023-10-31T15:03:27;4.88;;;1.83;;
56752;SDS011;42627;42.646;23.642;2023-10-31T15:05:28;9.40;;;2.50;;
56752;SDS011;42627;42.646;23.642;2023-10-31T15:07:30;5.20;;;1.92;;
56752;SDS011;42627;42.646;23.642;2023-10-31T15:11:51;14.93;;;5.85;;
56752;SDS011;42627;42.646;23.642;2023-10-31T15:13:52;5.00;;;2.25;;
56752;SDS011;42627;42.646;23.642;2023-10-31T15:15:53;4.68;;;2.05;;
56752;SDS011;42627;42.646;23.642;2023-10-31T15:17:54;3.28;;;1.67;;
56752;SDS011;42627;42.646;23.642;2023-10-31T15:35:58;6.53;;;2.80;;
56752;SDS011;42627;42.646;23.642;2023-10-31T15:37:59;7.43;;;2.20;;
56752;SDS011;42627;42.646;23.642;2023-10-31T15:40:12;4.18;;;1.77;;
56752;SDS011;42627;42.646;23.642;2023-10-31T15:42:16;9.48;;;3.90;;
56752;SDS011;42627;42.646;23.642;2023-10-31T15:44:20;5.05;;;2.20;;
56752;SDS011;42627;42.646;23.642;2023-10-31T15:46:21;4.32;;;2.42;;
56752;SDS011;42627;42.646;23.642;2023-10-31T15:48:22;5.60;;;2.35;;
56752;SDS011;42627;42.646;23.642;2023-10-31T15:50:44;4.25;;;1.98;;
56752;SDS011;42627;42.646;23.642;2023-10-31T15:53:13;6.32;;;2.15;;
56752;SDS011;42627;42.646;23.642;2023-10-31T15:55:20;5.05;;;1.95;;
56752;SDS011;42627;42.646;23.642;2023-10-31T15:57:23;3.03;;;2.13;;
56752;SDS011;42627;42.646;23.642;2023-10-31T15:59:27;4.75;;;2.20;;
56752;SDS011;42627;42.646;23.642;2023-10-31T16:01:29;6.55;;;2.58;;
56752;SDS011;42627;42.646;23.642;2023-10-31T16:03:32;9.93;;;3.28;;
56752;SDS011;42627;42.646;23.642;2023-10-31T16:05:36;10.60;;;3.75;;
56752;SDS011;42627;42.646;23.642;2023-10-31T16:07:38;11.65;;;3.78;;
56752;SDS011;42627;42.646;23.642;2023-10-31T16:09:51;5.95;;;2.40;;
56752;SDS011;42627;42.646;23.642;2023-10-31T16:11:54;3.80;;;1.95;;
56752;SDS011;42627;42.646;23.642;2023-10-31T16:13:56;5.45;;;2.10;;
56752;SDS011;42627;42.646;23.642;2023-10-31T16:15:59;7.15;;;3.45;;
56752;SDS011;42627;42.646;23.642;2023-10-31T16:18:03;7.95;;;2.58;;
56752;SDS011;42627;42.646;23.642;2023-10-31T16:22:45;6.63;;;2.90;;
56752;SDS011;42627;42.646;23.642;2023-10-31T16:32:33;5.60;;;2.30;;
56752;SDS011;42627;42.646;23.642;2023-10-31T16:41:26;9.05;;;6.28;;
56752;SDS011;42627;42.646;23.642;2023-10-31T16:43:29;30.25;;;14.93;;
56752;SDS011;42627;42.646;23.642;2023-10-31T16:45:30;280.42;;;119.20;;
56752;SDS011;42627;42.646;23.642;2023-10-31T16:47:31;471.17;;;208.93;;
56752;SDS011;42627;42.646;23.642;2023-10-31T16:49:32;256.77;;;101.13;;
56752;SDS011;42627;42.646;23.642;2023-10-31T16:51:33;42.03;;;19.00;;
56752;SDS011;42627;42.646;23.642;2023-10-31T17:34:02;8.50;;;3.17;;
56752;SDS011;42627;42.646;23.642;2023-10-31T17:36:03;5.75;;;2.75;;
56752;SDS011;42627;42.646;23.642;2023-10-31T17:38:04;4.20;;;1.92;;
56752;SDS011;42627;42.646;23.642;2023-10-31T17:40:05;8.55;;;3.10;;
56752;SDS011;42627;42.646;23.642;2023-10-31T17:42:09;15.27;;;3.10;;
56752;SDS011;42627;42.646;23.642;2023-10-31T17:44:10;11.05;;;2.85;;
56752;SDS011;42627;42.646;23.642;2023-10-31T17:46:11;12.05;;;5.75;;
56752;SDS011;42627;42.646;23.642;2023-10-31T17:48:21;11.30;;;5.15;;
56752;SDS011;42627;42.646;23.642;2023-10-31T17:50:25;13.57;;;5.57;;
56752;SDS011;42627;42.646;23.642;2023-10-31T17:52:31;8.85;;;4.20;;
56752;SDS011;42627;42.646;23.642;2023-10-31T17:54:33;7.22;;;3.08;;
56752;SDS011;42627;42.646;23.642;2023-10-31T17:56:37;8.65;;;3.40;;
56752;SDS011;42627;42.646;23.642;2023-10-31T17:58:57;8.95;;;3.78;;
56752;SDS011;42627;42.646;23.642;2023-10-31T18:03:40;9.82;;;3.25;;
56752;SDS011;42627;42.646;23.642;2023-10-31T18:05:41;7.85;;;2.42;;
56752;SDS011;42627;42.646;23.642;2023-10-31T18:07:42;6.93;;;3.22;;
56752;SDS011;42627;42.646;23.642;2023-10-31T18:09:43;7.88;;;3.25;;
56752;SDS011;42627;42.646;23.642;2023-10-31T18:11:44;11.00;;;3.92;;
56752;SDS011;42627;42.646;23.642;2023-10-31T18:13:46;11.55;;;3.83;;
56752;SDS011;42627;42.646;23.642;2023-10-31T18:15:47;7.72;;;3.13;;
56752;SDS011;42627;42.646;23.642;2023-10-31T18:20:09;4.45;;;2.10;;
56752;SDS011;42627;42.646;23.642;2023-10-31T18:22:10;5.43;;;1.88;;
56752;SDS011;42627;42.646;23.642;2023-10-31T18:24:11;4.90;;;2.13;;
56752;SDS011;42627;42.646;23.642;2023-10-31T18:26:13;5.45;;;2.20;;
56752;SDS011;42627;42.646;23.642;2023-10-31T18:36:05;6.15;;;1.70;;
56752;SDS011;42627;42.646;23.642;2023-10-31T18:38:06;6.90;;;1.85;;
56752;SDS011;42627;42.646;23.642;2023-10-31T18:40:09;6.95;;;2.00;;
56752;SDS011;42627;42.646;23.642;2023-10-31T18:42:10;4.00;;;1.63;;
56752;SDS011;42627;42.646;23.642;2023-10-31T18:44:11;5.60;;;2.08;;
56752;SDS011;42627;42.646;23.642;2023-10-31T18:46:12;9.45;;;2.55;;
56752;SDS011;42627;42.646;23.642;2023-10-31T18:50:24;4.03;;;1.83;;
56752;SDS011;42627;42.646;23.642;2023-10-31T18:52:25;4.82;;;2.42;;
56752;SDS011;42627;42.646;23.642;2023-10-31T18:54:27;6.95;;;1.73;;
56752;SDS011;42627;42.646;23.642;2023-10-31T18:56:28;5.57;;;2.15;;
56752;SDS011;42627;42.646;23.642;2023-10-31T18:58:29;7.38;;;2.28;;
56752;SDS011;42627;42.646;23.642;2023-10-31T19:00:30;8.00;;;2.65;;
56752;SDS011;42627;42.646;23.642;2023-10-31T19:05:19;8.85;;;3.05;;
56752;SDS011;42627;42.646;23.642;2023-10-31T19:07:39;10.30;;;3.58;;
56752;SDS011;42627;42.646;23.642;2023-10-31T19:09:41;10.75;;;3.10;;
56752;SDS011;42627;42.646;23.642;2023-10-31T19:11:42;8.98;;;2.53;;
56752;SDS011;42627;42.646;23.642;2023-10-31T19:13:43;9.60;;;2.53;;
56752;SDS011;42627;42.646;23.642;2023-10-31T19:15:44;5.30;;;2.13;;
56752;SDS011;42627;42.646;23.642;2023-10-31T19:17:45;4.22;;;2.65;;
56752;SDS011;42627;42.646;23.642;2023-10-31T19:19:46;4.45;;;2.38;;
56752;SDS011;42627;42.646;23.642;2023-10-31T19:21:47;8.60;;;2.85;;
56752;SDS011;42627;42.646;23.642;2023-10-31T19:26:08;6.05;;;2.38;;
56752;SDS011;42627;42.646;23.642;2023-10-31T19:28:09;10.65;;;2.67;;
56752;SDS011;42627;42.646;23.642;2023-10-31T19:30:10;7.80;;;2.10;;
56752;SDS011;42627;42.646;23.642;2023-10-31T19:32:12;3.97;;;2.03;;
56752;SDS011;42627;42.646;23.642;2023-10-31T19:34:13;4.20;;;2.05;;
56752;SDS011;42627;42.646;23.642;2023-10-31T19:36:14;6.35;;;2.60;;
56752;SDS011;42627;42.646;23.642;2023-10-31T19:38:31;4.22;;;2.60;;
56752;SDS011;42627;42.646;23.642;2023-10-31T19:40:41;8.52;;;2.80;;
56752;SDS011;42627;42.646;23.642;2023-10-31T19:42:51;4.80;;;2.40;;
56752;SDS011;42627;42.646;23.642;2023-10-31T19:44:52;9.07;;;3.42;;
56752;SDS011;42627;42.646;23.642;2023-10-31T19:46:53;10.55;;;3.65;;
56752;SDS011;42627;42.646;23.642;2023-10-31T19:48:54;6.78;;;2.78;;
56752;SDS011;42627;42.646;23.642;2023-10-31T19:50:55;5.97;;;2.83;;
56752;SDS011;42627;42.646;23.642;2023-10-31T19:52:57;8.73;;;2.95;;
56752;SDS011;42627;42.646;23.642;2023-10-31T19:54:58;7.45;;;2.58;;
56752;SDS011;42627;42.646;23.642;2023-10-31T19:59:22;3.83;;;2.08;;
56752;SDS011;42627;42.646;23.642;2023-10-31T20:01:23;8.18;;;2.15;;
56752;SDS011;42627;42.646;23.642;2023-10-31T20:03:25;5.32;;;1.90;;
56752;SDS011;42627;42.646;23.642;2023-10-31T20:05:27;9.50;;;1.90;;
56752;SDS011;42627;42.646;23.642;2023-10-31T20:07:29;5.00;;;2.10;;
56752;SDS011;42627;42.646;23.642;2023-10-31T20:09:30;2.67;;;1.50;;
56752;SDS011;42627;42.646;23.642;2023-10-31T20:11:31;3.60;;;1.95;;
56752;SDS011;42627;42.646;23.642;2023-10-31T20:16:20;4.90;;;1.75;;
56752;SDS011;42627;42.646;23.642;2023-10-31T20:18:46;4.97;;;1.83;;
56752;SDS011;42627;42.646;23.642;2023-10-31T20:20:47;3.95;;;2.10;;
56752;SDS011;42627;42.646;23.642;2023-10-31T20:22:48;5.35;;;2.50;;
56752;SDS011;42627;42.646;23.642;2023-10-31T20:24:49;5.32;;;2.00;;
56752;SDS011;42627;42.646;23.642;2023-10-31T20:26:50;6.68;;;2.50;;
56752;SDS011;42627;42.646;23.642;2023-10-31T20:28:51;5.47;;;2.45;;
56752;SDS011;42627;42.646;23.642;2023-10-31T20:30:53;5.63;;;3.15;;
56752;SDS011;42627;42.646;23.642;2023-10-31T20:35:05;8.70;;;2.72;;
56752;SDS011;42627;42.646;23.642;2023-10-31T20:37:06;8.93;;;3.72;;
56752;SDS011;42627;42.646;23.642;2023-10-31T20:39:08;10.48;;;4.07;;
56752;SDS011;42627;42.646;23.642;2023-10-31T20:41:11;9.00;;;3.60;;
56752;SDS011;42627;42.646;23.642;2023-10-31T20:43:12;11.68;;;3.20;;
56752;SDS011;42627;42.646;23.642;2023-10-31T21:24:27;8.57;;;2.83;;
56752;SDS011;42627;42.646;23.642;2023-10-31T21:26:28;9.25;;;3.10;;
56752;SDS011;42627;42.646;23.642;2023-10-31T21:28:30;7.47;;;2.78;;
56752;SDS011;42627;42.646;23.642;2023-10-31T21:30:31;6.03;;;2.70;;
56752;SDS011;42627;42.646;23.642;2023-10-31T21:32:33;8.15;;;2.67;;